DEFMU EDDS-EDTY
Flight info
| Callsign | DEFMU |
|---|---|
| Flight time | N/A |
| Altitude | |
| Route | |
| Aircraft | C152 |
Departure
| Time | 2026-05-07 19:10 |
|---|---|
| Airport | Stuttgart Airport (EDDS) |
Arrival
| Time | N/A |
|---|---|
| Airport | Adolf Würth Airport (EDTY) |
| Time | Latitude | Longitude | Altitude | Speed | Heading |
|---|---|---|---|---|---|
| 2026-05-07 18:58 | 48.69137 | 9.21012 | 1261 ft | 0 kts | 191° |
| 2026-05-07 18:59 | 48.69125 | 9.21009 | 1261 ft | 9 kts | 181° |
| 2026-05-07 18:59 | 48.69069 | 9.21054 | 1258 ft | 0 kts | 134° |
| 2026-05-07 19:00 | 48.69059 | 9.21071 | 1258 ft | 8 kts | 132° |
| 2026-05-07 19:00 | 48.69062 | 9.21225 | 1254 ft | 23 kts | 67° |
| 2026-05-07 19:00 | 48.69116 | 9.21498 | 1248 ft | 29 kts | 75° |
| 2026-05-07 19:00 | 48.69141 | 9.21638 | 1248 ft | 0 kts | 72° |
| 2026-05-07 19:01 | 48.69146 | 9.21658 | 1245 ft | 11 kts | 72° |
| 2026-05-07 19:01 | 48.69192 | 9.21895 | 1236 ft | 21 kts | 75° |
| 2026-05-07 19:01 | 48.69213 | 9.22004 | 1232 ft | 11 kts | 73° |
| 2026-05-07 19:01 | 48.69238 | 9.22139 | 1228 ft | 16 kts | 74° |
| 2026-05-07 19:02 | 48.69276 | 9.22336 | 1226 ft | 22 kts | 74° |
| 2026-05-07 19:02 | 48.69323 | 9.22584 | 1221 ft | 27 kts | 74° |
| 2026-05-07 19:02 | 48.69375 | 9.22863 | 1219 ft | 27 kts | 74° |
| 2026-05-07 19:02 | 48.69408 | 9.23058 | 1216 ft | 11 kts | 91° |
| 2026-05-07 19:03 | 48.69386 | 9.23140 | 1214 ft | 6 kts | 137° |
| 2026-05-07 19:03 | 48.69360 | 9.23161 | 1213 ft | 0 kts | 160° |
| 2026-05-07 19:07 | 48.69311 | 9.23182 | 1212 ft | 18 kts | 165° |
| 2026-05-07 19:07 | 48.69265 | 9.23200 | 1213 ft | 0 kts | 165° |
| 2026-05-07 19:08 | 48.69264 | 9.23201 | 1213 ft | 2 kts | 164° |
| 2026-05-07 19:08 | 48.69206 | 9.23225 | 1213 ft | 12 kts | 166° |
| 2026-05-07 19:09 | 48.69176 | 9.23198 | 1214 ft | 0 kts | 245° |
| 2026-05-07 19:09 | 48.69171 | 9.23180 | 1215 ft | 11 kts | 250° |
| 2026-05-07 19:09 | 48.69096 | 9.22790 | 1220 ft | 65 kts | 254° |
| 2026-05-07 19:10 | 48.68956 | 9.22053 | 1403 ft | 72 kts | 254° |
| 2026-05-07 19:10 | 48.68942 | 9.21520 | 1590 ft | 66 kts | 290° |
| 2026-05-07 19:10 | 48.69268 | 9.21155 | 1813 ft | 63 kts | 358° |
| 2026-05-07 19:10 | 48.69734 | 9.21142 | 2051 ft | 68 kts | 1° |
| 2026-05-07 19:11 | 48.70205 | 9.21120 | 2312 ft | 70 kts | 356° |
| 2026-05-07 19:11 | 48.70716 | 9.21142 | 2480 ft | 80 kts | 5° |
| 2026-05-07 19:11 | 48.71272 | 9.21174 | 2671 ft | 76 kts | 1° |
| 2026-05-07 19:11 | 48.71811 | 9.21183 | 2889 ft | 81 kts | 358° |
| 2026-05-07 19:12 | 48.72385 | 9.21087 | 2984 ft | 88 kts | 352° |
| 2026-05-07 19:12 | 48.72972 | 9.20951 | 3004 ft | 83 kts | 352° |
| 2026-05-07 19:12 | 48.73523 | 9.20838 | 3052 ft | 77 kts | 352° |
| 2026-05-07 19:12 | 48.74083 | 9.20713 | 2980 ft | 86 kts | 353° |
| 2026-05-07 19:13 | 48.74739 | 9.20603 | 3030 ft | 97 kts | 355° |
| 2026-05-07 19:13 | 48.75433 | 9.20509 | 3005 ft | 101 kts | 353° |
| 2026-05-07 19:13 | 48.76125 | 9.20389 | 2878 ft | 97 kts | 355° |
| 2026-05-07 19:13 | 48.76747 | 9.20427 | 2981 ft | 77 kts | 27° |
| 2026-05-07 19:14 | 48.77101 | 9.21039 | 2988 ft | 81 kts | 52° |
| 2026-05-07 19:14 | 48.77411 | 9.21782 | 2956 ft | 87 kts | 59° |
| 2026-05-07 19:14 | 48.77691 | 9.22613 | 2930 ft | 98 kts | 61° |
| 2026-05-07 19:14 | 48.77993 | 9.23595 | 2989 ft | 104 kts | 64° |
| 2026-05-07 19:15 | 48.78316 | 9.24535 | 3190 ft | 98 kts | 73° |
| 2026-05-07 19:15 | 48.78229 | 9.25609 | 3198 ft | 106 kts | 76° |
| 2026-05-07 19:15 | 48.78412 | 9.26761 | 3089 ft | 112 kts | 74° |
| 2026-05-07 19:15 | 48.78643 | 9.27880 | 3022 ft | 115 kts | 68° |
| 2026-05-07 19:16 | 48.79086 | 9.28871 | 2895 ft | 113 kts | 44° |
| 2026-05-07 19:16 | 48.79635 | 9.29737 | 2765 ft | 115 kts | 47° |
| 2026-05-07 19:16 | 48.80144 | 9.30665 | 2716 ft | 112 kts | 50° |
| 2026-05-07 19:16 | 48.80660 | 9.31548 | 2712 ft | 114 kts | 44° |
| 2026-05-07 19:17 | 48.81207 | 9.32373 | 2763 ft | 110 kts | 42° |
| 2026-05-07 19:17 | 48.81755 | 9.33108 | 2851 ft | 104 kts | 37° |
| 2026-05-07 19:17 | 48.82318 | 9.33792 | 2905 ft | 103 kts | 37° |
| 2026-05-07 19:17 | 48.82869 | 9.34482 | 2948 ft | 102 kts | 39° |
| 2026-05-07 19:18 | 48.83401 | 9.35216 | 3003 ft | 103 kts | 40° |
| 2026-05-07 19:18 | 48.83944 | 9.35959 | 2993 ft | 108 kts | 41° |
| 2026-05-07 19:18 | 48.84462 | 9.36774 | 3021 ft | 107 kts | 47° |
| 2026-05-07 19:18 | 48.84947 | 9.37631 | 3061 ft | 106 kts | 50° |
| 2026-05-07 19:19 | 48.85413 | 9.38513 | 3035 ft | 108 kts | 50° |
| 2026-05-07 19:19 | 48.85895 | 9.39408 | 3027 ft | 110 kts | 50° |
| 2026-05-07 19:19 | 48.86366 | 9.40338 | 2979 ft | 109 kts | 52° |
| 2026-05-07 19:19 | 48.86816 | 9.41260 | 2957 ft | 109 kts | 52° |
| 2026-05-07 19:20 | 48.87243 | 9.42191 | 3020 ft | 107 kts | 56° |
| 2026-05-07 19:20 | 48.87659 | 9.43124 | 3081 ft | 105 kts | 49° |
| 2026-05-07 19:20 | 48.88146 | 9.43950 | 3152 ft | 106 kts | 46° |
| 2026-05-07 19:20 | 48.88666 | 9.44761 | 3175 ft | 108 kts | 43° |
| 2026-05-07 19:21 | 48.89210 | 9.45551 | 3197 ft | 107 kts | 42° |
| 2026-05-07 19:21 | 48.89749 | 9.46327 | 3288 ft | 97 kts | 41° |
| 2026-05-07 19:21 | 48.90228 | 9.47014 | 3434 ft | 96 kts | 41° |
| 2026-05-07 19:21 | 48.90716 | 9.47736 | 3476 ft | 101 kts | 43° |
| 2026-05-07 19:22 | 48.91219 | 9.48510 | 3526 ft | 102 kts | 43° |
| 2026-05-07 19:22 | 48.91734 | 9.49274 | 3548 ft | 107 kts | 42° |
| 2026-05-07 19:22 | 48.92275 | 9.50063 | 3522 ft | 109 kts | 43° |
| 2026-05-07 19:22 | 48.92802 | 9.50912 | 3452 ft | 111 kts | 46° |
| 2026-05-07 19:23 | 48.93319 | 9.51775 | 3430 ft | 110 kts | 46° |
| 2026-05-07 19:23 | 48.93825 | 9.52545 | 3590 ft | 99 kts | 41° |
| 2026-05-07 19:23 | 48.94333 | 9.53305 | 3538 ft | 108 kts | 44° |
| 2026-05-07 19:23 | 48.94861 | 9.54134 | 3463 ft | 113 kts | 44° |
| 2026-05-07 19:24 | 48.95436 | 9.55027 | 3208 ft | 121 kts | 44° |
| 2026-05-07 19:24 | 48.96017 | 9.55926 | 3065 ft | 117 kts | 44° |
| 2026-05-07 19:24 | 48.96543 | 9.56753 | 3160 ft | 104 kts | 44° |
| 2026-05-07 19:24 | 48.97044 | 9.57506 | 3280 ft | 99 kts | 42° |
| 2026-05-07 19:25 | 48.97560 | 9.58238 | 3290 ft | 105 kts | 40° |
| 2026-05-07 19:25 | 48.98134 | 9.59002 | 3196 ft | 111 kts | 40° |
| 2026-05-07 19:25 | 48.98707 | 9.59765 | 3203 ft | 108 kts | 39° |
| 2026-05-07 19:25 | 48.99278 | 9.60478 | 3224 ft | 106 kts | 37° |
| 2026-05-07 19:26 | 48.99876 | 9.61157 | 3220 ft | 107 kts | 34° |
| 2026-05-07 19:26 | 49.00493 | 9.61780 | 3214 ft | 106 kts | 31° |
| 2026-05-07 19:26 | 49.01128 | 9.62361 | 3208 ft | 106 kts | 28° |
| 2026-05-07 19:26 | 49.01559 | 9.62723 | 3203 ft | 107 kts | 27° |